createdAt,value
2023-06-19T00:00:48.638Z,6.95
2023-06-19T00:03:16.874Z,6.38
2023-06-19T00:05:45.092Z,7.05
2023-06-19T00:08:13.239Z,6.35
2023-06-19T00:10:41.367Z,6.50
2023-06-19T00:13:09.497Z,6.70
2023-06-19T00:15:39.106Z,7.03
2023-06-19T00:18:08.286Z,7.15
2023-06-19T00:20:37.441Z,6.40
2023-06-19T00:23:05.645Z,6.78
2023-06-19T00:25:33.772Z,6.80
2023-06-19T00:28:01.900Z,6.95
2023-06-19T00:30:33.763Z,6.60
2023-06-19T00:33:03.613Z,6.85
2023-06-19T00:35:31.756Z,6.88
2023-06-19T00:38:01.836Z,6.93
2023-06-19T00:40:30.978Z,7.22
2023-06-19T00:42:59.312Z,7.13
2023-06-19T00:45:27.904Z,7.00
2023-06-19T00:47:56.356Z,7.43
2023-06-19T00:50:26.242Z,7.28
2023-06-19T00:52:54.671Z,7.15
2023-06-19T00:55:22.755Z,7.38
2023-06-19T00:57:51.254Z,6.60
2023-06-19T01:00:19.479Z,7.25
2023-06-19T01:02:47.934Z,6.80
2023-06-19T01:05:16.354Z,7.05
2023-06-19T01:08:01.310Z,7.18
2023-06-19T01:10:30.661Z,6.60
2023-06-19T01:13:00.485Z,6.78
2023-06-19T01:15:28.604Z,6.47
2023-06-19T01:17:57.196Z,6.55
2023-06-19T01:20:25.608Z,6.30
2023-06-19T01:22:58.154Z,6.47
2023-06-19T01:25:26.555Z,6.18
2023-06-19T01:27:54.784Z,5.97
2023-06-19T01:30:23.247Z,5.20
2023-06-19T01:32:55.700Z,5.18
2023-06-19T01:35:25.739Z,4.93
2023-06-19T01:37:55.308Z,5.07
2023-06-19T01:40:26.121Z,4.55
2023-06-19T01:42:54.543Z,4.47
2023-06-19T01:45:22.819Z,4.78
2023-06-19T01:47:51.041Z,4.72
2023-06-19T01:50:19.170Z,4.25
2023-06-19T01:52:47.676Z,3.95
2023-06-19T01:55:17.231Z,3.83
2023-06-19T01:57:46.962Z,3.60
2023-06-19T02:00:15.356Z,3.83
2023-06-19T02:02:43.564Z,3.90
2023-06-19T02:05:11.783Z,3.58
2023-06-19T02:07:39.917Z,3.53
2023-06-19T02:10:09.367Z,3.42
2023-06-19T02:12:38.934Z,3.42
2023-06-19T02:15:08.338Z,3.17
2023-06-19T02:17:36.531Z,3.33
2023-06-19T02:20:08.960Z,2.83
2023-06-19T02:22:37.123Z,3.90
2023-06-19T02:25:05.965Z,3.13
2023-06-19T02:27:34.094Z,2.78
2023-06-19T02:30:04.425Z,2.67
2023-06-19T02:32:32.521Z,3.38
2023-06-19T02:35:00.662Z,2.95
2023-06-19T02:37:30.527Z,3.05
2023-06-19T02:39:59.187Z,3.17
2023-06-19T02:42:27.299Z,3.20
2023-06-19T02:44:55.433Z,2.67
2023-06-19T02:47:25.208Z,2.72
2023-06-19T02:49:53.387Z,3.05
2023-06-19T02:52:22.540Z,3.20
2023-06-19T02:54:50.643Z,3.25
2023-06-19T02:57:18.774Z,3.10
2023-06-19T02:59:47.241Z,2.78
2023-06-19T03:02:15.608Z,3.13
2023-06-19T03:04:45.447Z,3.13
2023-06-19T03:07:15.040Z,3.38
2023-06-19T03:09:43.295Z,2.90
2023-06-19T03:12:12.069Z,3.28
2023-06-19T03:14:41.109Z,3.10
2023-06-19T03:17:09.487Z,3.50
2023-06-19T03:19:37.770Z,2.85
2023-06-19T03:22:07.619Z,3.30
2023-06-19T03:24:35.823Z,2.75
2023-06-19T03:27:04.017Z,3.47
2023-06-19T03:29:32.151Z,3.40
2023-06-19T03:32:00.290Z,3.20
2023-06-19T03:34:28.410Z,3.22
2023-06-19T03:36:56.770Z,3.28
2023-06-19T03:39:26.309Z,3.40
2023-06-19T03:41:54.395Z,3.53
2023-06-19T03:44:22.581Z,3.08
2023-06-19T03:46:51.815Z,3.53
2023-06-19T03:49:20.076Z,3.17
2023-06-19T03:51:48.235Z,3.40
2023-06-19T03:54:16.366Z,3.40
2023-06-19T03:56:45.810Z,3.22
2023-06-19T03:59:13.947Z,4.07
2023-06-19T04:01:42.827Z,3.40
2023-06-19T04:04:11.209Z,3.72
2023-06-19T04:06:39.415Z,3.40
2023-06-19T04:09:07.548Z,3.83
2023-06-19T04:11:35.685Z,3.80
2023-06-19T04:14:05.177Z,3.20
2023-06-19T04:16:33.443Z,4.05
2023-06-19T04:19:01.741Z,3.50
2023-06-19T04:21:30.792Z,4.03
2023-06-19T04:23:59.344Z,3.80
2023-06-19T04:26:28.795Z,4.30
2023-06-19T04:28:57.461Z,3.55
2023-06-19T04:31:27.757Z,3.70
2023-06-19T04:33:57.966Z,4.00
2023-06-19T04:36:26.163Z,3.50
2023-06-19T04:38:54.303Z,3.90
2023-06-19T04:41:22.987Z,3.70
2023-06-19T04:43:51.125Z,4.00
2023-06-19T04:46:21.501Z,4.00
2023-06-19T04:48:51.907Z,5.28
2023-06-19T04:51:22.375Z,4.13
2023-06-19T04:53:50.516Z,4.00
2023-06-19T04:56:18.775Z,4.38
2023-06-19T04:58:48.401Z,4.05
2023-06-19T05:01:16.581Z,3.60
2023-06-19T05:03:47.154Z,3.90
2023-06-19T05:06:16.654Z,3.97
2023-06-19T05:08:44.832Z,4.18
2023-06-19T05:11:12.978Z,4.50
2023-06-19T05:13:41.140Z,4.40
2023-06-19T05:16:09.246Z,3.95
2023-06-19T05:18:37.377Z,3.65
2023-06-19T05:21:05.533Z,4.22
2023-06-19T05:23:35.094Z,3.60
2023-06-19T05:26:03.404Z,4.00
2023-06-19T05:28:31.515Z,4.05
2023-06-19T05:30:59.741Z,4.05
2023-06-19T05:33:28.160Z,4.00
2023-06-19T05:35:57.114Z,4.20
2023-06-19T05:38:27.239Z,4.05
2023-06-19T05:40:56.751Z,3.95
2023-06-19T05:43:25.906Z,3.50
2023-06-19T05:45:55.011Z,4.35
2023-06-19T05:48:23.214Z,4.05
2023-06-19T05:50:51.376Z,8.32
2023-06-19T05:53:19.473Z,4.78
2023-06-19T05:55:48.053Z,4.40
2023-06-19T05:58:21.084Z,4.32
2023-06-19T06:00:49.538Z,3.88
2023-06-19T06:03:17.770Z,3.90
2023-06-19T06:05:50.016Z,4.07
2023-06-19T06:08:18.231Z,3.60
2023-06-19T06:10:46.510Z,3.92
2023-06-19T06:13:14.925Z,3.88
2023-06-19T06:15:44.421Z,4.00
2023-06-19T06:18:12.630Z,4.20
2023-06-19T06:20:40.775Z,4.20
2023-06-19T06:23:08.971Z,4.25
2023-06-19T06:25:37.067Z,4.25
2023-06-19T06:28:06.346Z,3.90
2023-06-19T06:30:34.524Z,4.47
2023-06-19T06:33:04.720Z,4.07
2023-06-19T06:35:33.046Z,4.30
2023-06-19T06:38:03.215Z,4.10
2023-06-19T06:40:31.358Z,3.97
2023-06-19T06:42:59.869Z,4.32
2023-06-19T06:45:28.500Z,3.80
2023-06-19T06:47:58.141Z,4.88
2023-06-19T06:50:28.142Z,5.10
2023-06-19T06:52:56.521Z,3.85
2023-06-19T06:55:24.684Z,4.07
2023-06-19T06:57:52.791Z,3.60
2023-06-19T07:00:21.584Z,3.90
2023-06-19T07:02:51.599Z,4.05
2023-06-19T07:05:20.468Z,4.53
2023-06-19T07:07:49.948Z,3.90
2023-06-19T07:10:18.263Z,3.83
2023-06-19T07:12:49.941Z,3.95
2023-06-19T07:15:18.223Z,3.70
2023-06-19T07:17:46.889Z,5.68
2023-06-19T07:20:15.135Z,4.22
2023-06-19T07:22:43.339Z,3.95
2023-06-19T07:25:13.989Z,4.00
2023-06-19T07:27:42.822Z,3.47
2023-06-19T07:30:14.052Z,3.70
2023-06-19T07:32:43.942Z,3.60
2023-06-19T07:35:12.431Z,3.88
2023-06-19T07:37:40.604Z,4.72
2023-06-19T07:40:19.632Z,4.95
2023-06-19T07:42:50.566Z,4.13
2023-06-19T07:45:47.599Z,3.88
2023-06-19T07:54:59.794Z,4.05
2023-06-19T08:01:11.110Z,4.80
2023-06-19T08:03:54.426Z,4.22
2023-06-19T08:06:56.168Z,4.20
2023-06-19T08:10:14.064Z,4.32
2023-06-19T08:13:06.280Z,4.22
2023-06-19T08:15:58.862Z,4.45
2023-06-19T08:18:53.672Z,4.60
2023-06-19T08:25:29.233Z,4.25
2023-06-19T08:35:32.563Z,4.63
2023-06-19T08:47:56.392Z,4.60
2023-06-19T08:50:48.440Z,4.53
2023-06-19T09:07:33.889Z,4.90
2023-06-19T09:10:49.786Z,4.45
2023-06-19T09:14:06.422Z,4.78
2023-06-19T09:23:18.128Z,5.00
2023-06-19T09:26:23.864Z,5.55
2023-06-19T09:36:19.091Z,5.10
2023-06-19T09:39:44.447Z,5.47
2023-06-19T09:43:00.703Z,4.13
2023-06-19T09:49:09.138Z,4.97
2023-06-19T09:51:18.643Z,5.00
2023-06-19T09:54:19.028Z,5.03
2023-06-19T10:00:48.409Z,5.10
2023-06-19T10:07:28.980Z,5.38
2023-06-19T10:10:34.407Z,4.93
2023-06-19T10:13:51.965Z,4.60
2023-06-19T10:17:27.409Z,4.68
2023-06-19T10:20:17.356Z,5.30
2023-06-19T10:23:18.282Z,4.45
2023-06-19T10:29:29.224Z,4.40
2023-06-19T10:32:37.739Z,4.50
2023-06-19T10:35:59.580Z,4.78
2023-06-19T10:39:37.105Z,5.05
2023-06-19T10:41:53.405Z,5.32
2023-06-19T10:44:34.713Z,5.10
2023-06-19T10:47:23.720Z,4.50
2023-06-19T10:50:26.205Z,4.60
2023-06-19T10:53:34.409Z,4.85
2023-06-19T10:59:56.453Z,4.32
2023-06-19T11:05:54.394Z,5.22
2023-06-19T11:08:42.619Z,5.72
2023-06-19T11:12:02.499Z,4.90
2023-06-19T11:14:56.197Z,4.68
2023-06-19T11:17:38.009Z,4.40
2023-06-19T11:20:31.273Z,4.75
2023-06-19T11:23:11.353Z,5.18
2023-06-19T11:26:07.213Z,4.32
2023-06-19T11:29:04.364Z,5.05
2023-06-19T11:32:31.549Z,5.35
2023-06-19T11:35:29.690Z,4.53
2023-06-19T11:38:55.306Z,4.70
2023-06-19T11:42:07.041Z,5.13
2023-06-19T11:45:03.298Z,5.45
2023-06-19T11:51:15.394Z,4.80
2023-06-19T11:54:25.996Z,4.65
2023-06-19T11:57:06.778Z,4.38
2023-06-19T12:00:10.790Z,4.50
2023-06-19T12:04:07.189Z,4.50
2023-06-19T12:06:18.540Z,4.40
2023-06-19T12:12:53.905Z,4.05
2023-06-19T12:18:56.130Z,3.88
2023-06-19T12:25:42.710Z,3.80
2023-06-19T12:28:39.340Z,4.03
2023-06-19T12:31:48.070Z,3.55
2023-06-19T12:41:05.813Z,3.55
2023-06-19T12:43:47.328Z,3.78
2023-06-19T12:46:28.886Z,3.78
2023-06-19T12:49:35.920Z,3.78
2023-06-19T12:55:45.805Z,3.38
2023-06-19T12:59:18.252Z,4.20
2023-06-19T13:02:44.800Z,3.97
2023-06-19T13:05:52.210Z,3.50
2023-06-19T13:11:12.465Z,3.65
2023-06-19T13:14:04.929Z,3.42
2023-06-19T13:17:06.655Z,4.25
2023-06-19T13:19:55.009Z,4.05
2023-06-19T13:23:04.172Z,4.00
2023-06-19T13:26:14.051Z,3.75
2023-06-19T13:29:13.750Z,4.25
2023-06-19T13:32:21.690Z,3.50
2023-06-19T13:35:27.560Z,4.00
2023-06-19T13:40:53.876Z,3.75
2023-06-19T13:43:35.587Z,3.70
2023-06-19T13:46:34.741Z,4.32
2023-06-19T13:49:44.075Z,3.88
2023-06-19T13:52:50.284Z,3.50
2023-06-19T13:55:57.315Z,3.70
2023-06-19T13:58:32.485Z,4.07
2023-06-19T14:01:22.731Z,3.92
2023-06-19T14:04:31.381Z,4.13
2023-06-19T14:07:32.754Z,4.43
2023-06-19T14:10:21.826Z,4.10
2023-06-19T14:13:18.053Z,4.40
2023-06-19T14:16:40.527Z,4.28
2023-06-19T14:19:56.915Z,4.30
2023-06-19T14:22:54.621Z,4.13
2023-06-19T14:25:51.760Z,3.95
2023-06-19T14:28:49.546Z,3.85
2023-06-19T14:31:35.558Z,5.65
2023-06-19T14:34:26.495Z,4.57
2023-06-19T14:37:45.377Z,4.20
2023-06-19T14:44:20.220Z,5.40
2023-06-19T14:46:53.755Z,4.43
2023-06-19T14:49:36.909Z,3.65
2023-06-19T14:52:41.392Z,3.83
2023-06-19T14:55:12.312Z,4.22
2023-06-19T14:57:41.943Z,3.97
2023-06-19T15:00:27.159Z,4.28
2023-06-19T15:03:15.814Z,3.42
2023-06-19T15:05:47.370Z,3.75
2023-06-19T15:08:30.542Z,4.70
2023-06-19T15:11:13.552Z,4.00
2023-06-19T15:16:46.985Z,4.28
2023-06-19T15:20:01.807Z,4.60
2023-06-19T15:22:40.453Z,4.05
2023-06-19T15:25:34.955Z,4.03
2023-06-19T15:28:44.810Z,4.22
2023-06-19T15:31:20.383Z,4.05
2023-06-19T15:34:15.874Z,3.85
2023-06-19T15:37:20.210Z,3.85
2023-06-19T15:40:14.477Z,3.33
2023-06-19T15:42:52.319Z,3.72
2023-06-19T15:46:13.855Z,3.70
2023-06-19T15:49:02.589Z,4.22
2023-06-19T15:51:30.846Z,3.65
2023-06-19T15:53:58.978Z,3.70
2023-06-19T15:56:28.719Z,4.05
2023-06-19T15:58:57.576Z,4.47
2023-06-19T16:01:25.805Z,4.25
2023-06-19T16:03:55.453Z,4.13
2023-06-19T16:06:23.668Z,4.07
2023-06-19T16:08:53.136Z,3.90
2023-06-19T16:11:21.336Z,4.00
2023-06-19T16:13:50.027Z,3.85
2023-06-19T16:16:18.928Z,4.30
2023-06-19T16:18:48.192Z,4.00
2023-06-19T16:21:18.992Z,4.10
2023-06-19T16:23:47.920Z,3.65
2023-06-19T16:26:19.810Z,4.07
2023-06-19T16:28:49.685Z,4.13
2023-06-19T16:31:18.273Z,3.88
2023-06-19T16:33:48.656Z,3.67
2023-06-19T16:36:18.546Z,3.80
2023-06-19T16:38:50.069Z,4.20
2023-06-19T16:41:20.782Z,3.90
2023-06-19T16:43:49.224Z,3.83
2023-06-19T16:46:17.782Z,3.92
2023-06-19T16:48:46.996Z,3.80
2023-06-19T16:51:15.458Z,4.07
2023-06-19T16:53:45.208Z,4.32
2023-06-19T16:56:13.529Z,3.60
2023-06-19T16:58:42.006Z,3.95
2023-06-19T17:01:12.906Z,3.72
2023-06-19T17:03:41.853Z,4.15
2023-06-19T17:06:10.322Z,3.85
2023-06-19T17:08:38.510Z,4.35
2023-06-19T17:11:08.213Z,3.90
2023-06-19T17:13:36.437Z,4.57
2023-06-19T17:16:04.746Z,3.95
2023-06-19T17:18:34.001Z,4.50
2023-06-19T17:21:02.611Z,4.43
2023-06-19T17:23:30.756Z,4.55
2023-06-19T17:25:59.034Z,4.25
2023-06-19T17:28:28.579Z,3.85
2023-06-19T17:30:56.887Z,3.90
2023-06-19T17:33:25.079Z,3.80
2023-06-19T17:35:53.291Z,3.90
2023-06-19T17:38:21.692Z,3.88
2023-06-19T17:40:49.989Z,3.88
2023-06-19T17:43:18.125Z,4.20
2023-06-19T17:45:47.846Z,3.90
2023-06-19T17:48:16.121Z,3.63
2023-06-19T17:50:44.261Z,4.00
2023-06-19T17:53:12.756Z,3.95
2023-06-19T17:55:41.956Z,3.33
2023-06-19T17:58:10.220Z,4.03
2023-06-19T18:00:38.384Z,3.53
2023-06-19T18:03:09.551Z,3.88
2023-06-19T18:05:37.828Z,3.40
2023-06-19T18:08:06.210Z,3.85
2023-06-19T18:10:34.576Z,4.00
2023-06-19T18:13:04.040Z,3.83
2023-06-19T18:15:32.680Z,3.97
2023-06-19T18:18:01.126Z,3.75
2023-06-19T18:20:31.139Z,3.78
2023-06-19T18:22:59.398Z,3.78
2023-06-19T18:25:27.725Z,3.88
2023-06-19T18:27:55.991Z,3.50
2023-06-19T18:30:24.442Z,3.70
2023-06-19T18:32:52.922Z,3.80
2023-06-19T18:35:21.176Z,3.85
2023-06-19T18:37:51.264Z,4.05
2023-06-19T18:40:19.436Z,3.78
2023-06-19T18:42:47.794Z,4.25
2023-06-19T18:45:19.066Z,4.20
2023-06-19T18:47:49.315Z,4.60
2023-06-19T18:50:19.825Z,4.10
2023-06-19T18:52:48.200Z,4.22
2023-06-19T18:55:18.037Z,4.45
2023-06-19T18:57:48.726Z,4.78
2023-06-19T19:00:21.055Z,4.22
2023-06-19T19:02:51.462Z,4.15
2023-06-19T19:05:19.768Z,4.82
2023-06-19T19:07:48.036Z,4.30
2023-06-19T19:10:17.621Z,4.55
2023-06-19T19:12:45.803Z,4.60
2023-06-19T19:15:14.015Z,4.30
2023-06-19T19:17:42.360Z,4.65
2023-06-19T19:20:13.467Z,3.78
2023-06-19T19:22:42.047Z,4.25
2023-06-19T19:25:10.506Z,4.72
2023-06-19T19:27:40.267Z,4.80
2023-06-19T19:30:09.989Z,4.30
2023-06-19T19:32:38.159Z,3.92
2023-06-19T19:35:06.978Z,3.70
2023-06-19T19:37:35.297Z,4.43
2023-06-19T19:40:04.861Z,4.22
2023-06-19T19:42:33.217Z,4.13
2023-06-19T19:45:06.105Z,4.60
2023-06-19T19:47:34.776Z,4.80
2023-06-19T19:50:03.052Z,4.47
2023-06-19T19:52:31.639Z,4.47
2023-06-19T19:54:59.838Z,4.28
2023-06-19T19:57:28.048Z,4.43
2023-06-19T19:59:56.198Z,4.65
2023-06-19T20:02:25.773Z,4.60
2023-06-19T20:04:53.984Z,4.53
2023-06-19T20:07:22.121Z,4.88
2023-06-19T20:09:50.969Z,4.63
2023-06-19T20:12:21.838Z,4.40
2023-06-19T20:14:50.296Z,4.30
2023-06-19T20:17:18.423Z,4.82
2023-06-19T20:19:48.179Z,4.43
2023-06-19T20:22:18.667Z,4.78
2023-06-19T20:24:50.346Z,4.88
2023-06-19T20:27:19.138Z,4.82
2023-06-19T20:29:47.309Z,5.20
2023-06-19T20:32:15.465Z,5.45
2023-06-19T20:34:43.637Z,4.72
2023-06-19T20:37:13.164Z,5.47
2023-06-19T20:39:42.497Z,4.80
2023-06-19T20:42:10.787Z,4.80
2023-06-19T20:44:38.994Z,5.18
2023-06-19T20:47:08.024Z,4.80
2023-06-19T20:49:36.163Z,5.35
2023-06-19T20:52:04.458Z,4.35
2023-06-19T20:54:36.836Z,4.97
2023-06-19T20:57:05.310Z,5.05
2023-06-19T20:59:34.385Z,5.00
2023-06-19T21:02:02.730Z,5.00
2023-06-19T21:04:31.128Z,5.22
2023-06-19T21:06:59.429Z,5.13
2023-06-19T21:09:28.109Z,5.18
2023-06-19T21:11:57.613Z,5.20
2023-06-19T21:14:25.853Z,5.10
2023-06-19T21:16:54.005Z,5.18
2023-06-19T21:19:22.193Z,5.22
2023-06-19T21:21:50.340Z,4.78
2023-06-19T21:24:18.580Z,4.78
2023-06-19T21:26:46.712Z,5.15
2023-06-19T21:29:16.257Z,4.85
2023-06-19T21:31:44.509Z,5.60
2023-06-19T21:34:12.789Z,5.20
2023-06-19T21:36:41.105Z,5.35
2023-06-19T21:39:09.297Z,5.03
2023-06-19T21:41:38.499Z,5.10
2023-06-19T21:44:06.878Z,5.50
2023-06-19T21:46:36.821Z,5.28
2023-06-19T21:49:05.857Z,5.18
2023-06-19T21:51:35.027Z,5.35
2023-06-19T21:54:03.181Z,5.57
2023-06-19T21:56:31.335Z,5.07
2023-06-19T21:58:59.508Z,5.68
2023-06-19T22:01:27.680Z,5.68
2023-06-19T22:03:57.351Z,5.25
2023-06-19T22:06:25.519Z,5.70
2023-06-19T22:08:53.670Z,5.40
2023-06-19T22:11:21.970Z,5.80
2023-06-19T22:13:50.088Z,5.60
2023-06-19T22:16:18.214Z,5.80
2023-06-19T22:18:46.419Z,5.25
2023-06-19T22:21:16.033Z,5.22
2023-06-19T22:23:45.470Z,5.40
2023-06-19T22:26:13.602Z,5.40
2023-06-19T22:28:41.718Z,5.10
2023-06-19T22:31:09.882Z,5.65
2023-06-19T22:33:38.051Z,5.22
2023-06-19T22:36:09.708Z,5.80
2023-06-19T22:38:43.462Z,5.40
2023-06-19T22:41:11.610Z,5.80
2023-06-19T22:43:39.773Z,6.10
2023-06-19T22:46:07.991Z,5.32
2023-06-19T22:48:37.421Z,4.88
2023-06-19T22:51:05.669Z,5.88
2023-06-19T22:53:33.768Z,5.50
2023-06-19T22:56:03.874Z,5.78
2023-06-19T22:58:32.033Z,5.43
2023-06-19T23:01:00.240Z,5.60
2023-06-19T23:03:30.413Z,5.60
2023-06-19T23:05:58.729Z,5.60
2023-06-19T23:08:26.832Z,5.25
2023-06-19T23:10:54.975Z,4.95
2023-06-19T23:13:24.687Z,5.53
2023-06-19T23:15:52.951Z,5.70
2023-06-19T23:18:23.037Z,5.13
2023-06-19T23:20:51.227Z,5.63
2023-06-19T23:23:21.508Z,4.88
2023-06-19T23:25:50.529Z,5.63
2023-06-19T23:28:19.667Z,5.57
2023-06-19T23:30:52.149Z,5.57
2023-06-19T23:33:21.206Z,5.32
2023-06-19T23:35:52.163Z,5.40
2023-06-19T23:38:20.605Z,5.93
2023-06-19T23:40:48.744Z,5.72
2023-06-19T23:43:17.118Z,5.97
2023-06-19T23:45:45.203Z,5.13
2023-06-19T23:48:17.930Z,5.95
2023-06-19T23:50:46.218Z,5.60
2023-06-19T23:53:14.379Z,6.07
2023-06-19T23:55:42.613Z,6.15
2023-06-19T23:58:10.752Z,6.68
